createdAt,value
2023-03-29T00:01:00.769Z,94741.88
2023-03-29T00:03:28.279Z,94730.63
2023-03-29T00:06:05.733Z,94719.34
2023-03-29T00:08:34.365Z,94729.22
2023-03-29T00:11:01.780Z,94733.78
2023-03-29T00:13:28.617Z,94731.69
2023-03-29T00:15:56.290Z,94729.84
2023-03-29T00:18:23.371Z,94731.72
2023-03-29T00:20:57.710Z,94727.97
2023-03-29T00:23:25.394Z,94729.84
2023-03-29T00:25:56.317Z,94726.50
2023-03-29T00:28:23.285Z,94730.97
2023-03-29T00:30:52.900Z,94722.66
2023-03-29T00:33:23.199Z,94733.78
2023-03-29T00:35:53.484Z,94721.84
2023-03-29T00:38:20.277Z,94731.13
2023-03-29T00:40:47.215Z,94730.06
2023-03-29T00:43:15.419Z,94734.44
2023-03-29T00:45:42.535Z,94732.34
2023-03-29T00:48:11.875Z,94733.09
2023-03-29T00:50:40.073Z,94731.47
2023-03-29T00:53:23.978Z,94730.72
2023-03-29T00:56:14.330Z,94719.59
2023-03-29T00:58:51.999Z,94721.59
2023-03-29T01:01:28.268Z,94716.66
2023-03-29T01:04:04.430Z,94696.72
2023-03-29T01:06:34.529Z,94693.97
2023-03-29T01:09:04.060Z,94711.44
2023-03-29T01:11:43.182Z,94694.63
2023-03-29T01:14:23.373Z,94708.19
2023-03-29T01:16:50.343Z,94713.78
2023-03-29T01:19:20.093Z,94701.25
2023-03-29T01:21:51.780Z,94709.94
2023-03-29T01:24:27.485Z,94702.69
2023-03-29T01:27:15.819Z,94706.72
2023-03-29T01:29:51.739Z,94707.25
2023-03-29T01:32:41.435Z,94711.38
2023-03-29T01:35:16.055Z,94704.59
2023-03-29T01:38:26.123Z,94702.31
2023-03-29T01:40:52.901Z,94707.25
2023-03-29T01:43:34.240Z,94712.22
2023-03-29T01:46:01.578Z,94714.38
2023-03-29T01:48:32.866Z,94715.03
2023-03-29T01:51:26.622Z,94711.69
2023-03-29T01:54:04.898Z,94706.84
2023-03-29T01:56:37.016Z,94718.66
2023-03-29T01:59:09.781Z,94723.22
2023-03-29T02:01:40.914Z,94736.13
2023-03-29T02:04:11.503Z,94728.88
2023-03-29T02:06:39.772Z,94734.22
2023-03-29T02:09:07.320Z,94749.94
2023-03-29T02:11:35.373Z,94746.03
2023-03-29T02:14:02.141Z,94741.19
2023-03-29T02:16:29.153Z,94751.34
2023-03-29T02:18:57.137Z,94737.00
2023-03-29T02:21:34.452Z,94739.63
2023-03-29T02:24:03.507Z,94743.66
2023-03-29T02:26:30.965Z,94732.91
2023-03-29T02:28:57.737Z,94753.16
2023-03-29T02:31:44.952Z,94751.44
2023-03-29T02:34:41.299Z,94747.69
2023-03-29T02:37:15.753Z,94755.47
2023-03-29T02:39:42.763Z,94742.34
2023-03-29T02:42:10.038Z,94749.69
2023-03-29T02:44:40.146Z,94743.28
2023-03-29T02:47:30.011Z,94729.63
2023-03-29T02:49:56.757Z,94725.22
2023-03-29T02:52:27.583Z,94707.13
2023-03-29T02:54:55.232Z,94703.22
2023-03-29T02:57:26.760Z,94697.50
2023-03-29T02:59:55.294Z,94698.31
2023-03-29T03:02:22.025Z,94689.72
2023-03-29T03:04:48.804Z,94688.66
2023-03-29T03:07:15.540Z,94669.22
2023-03-29T03:09:42.783Z,94674.84
2023-03-29T03:12:09.574Z,94685.31
2023-03-29T03:14:36.265Z,94674.19
2023-03-29T03:17:04.740Z,94678.59
2023-03-29T03:19:31.800Z,94680.31
2023-03-29T03:21:59.776Z,94679.88
2023-03-29T03:24:28.167Z,94684.56
2023-03-29T03:26:55.533Z,94683.38
2023-03-29T03:29:22.332Z,94678.16
2023-03-29T03:31:49.903Z,94681.25
2023-03-29T03:34:19.615Z,94679.38
2023-03-29T03:36:47.427Z,94684.59
2023-03-29T03:39:14.470Z,94684.59
2023-03-29T03:41:41.233Z,94674.53
2023-03-29T03:44:07.953Z,94680.44
2023-03-29T03:46:34.717Z,94680.06
2023-03-29T03:49:01.399Z,94678.81
2023-03-29T03:51:28.158Z,94685.28
2023-03-29T03:53:54.830Z,94687.16
2023-03-29T03:56:21.648Z,94700.00
2023-03-29T03:58:48.444Z,94692.50
2023-03-29T04:01:15.109Z,94689.03
2023-03-29T04:03:41.916Z,94688.09
2023-03-29T04:06:09.918Z,94682.31
2023-03-29T04:08:36.786Z,94676.97
2023-03-29T04:11:04.827Z,94687.56
2023-03-29T04:13:31.637Z,94679.66
2023-03-29T04:16:00.903Z,94680.59
2023-03-29T04:18:28.996Z,94676.88
2023-03-29T04:20:55.612Z,94678.47
2023-03-29T04:23:22.234Z,94661.84
2023-03-29T04:25:48.938Z,94672.69
2023-03-29T04:28:15.532Z,94661.97
2023-03-29T04:30:42.151Z,94658.22
2023-03-29T04:33:08.889Z,94656.59
2023-03-29T04:35:35.661Z,94658.63
2023-03-29T04:38:04.496Z,94656.88
2023-03-29T04:40:31.305Z,94642.66
2023-03-29T04:42:57.866Z,94669.09
2023-03-29T04:45:24.601Z,94661.03
2023-03-29T04:47:54.085Z,94668.28
2023-03-29T04:50:20.893Z,94668.53
2023-03-29T04:52:47.673Z,94665.19
2023-03-29T04:55:14.395Z,94653.41
2023-03-29T04:57:41.391Z,94656.06
2023-03-29T05:00:14.701Z,94648.28
2023-03-29T05:02:45.008Z,94650.16
2023-03-29T05:05:12.644Z,94643.31
2023-03-29T05:07:39.571Z,94645.09
2023-03-29T05:10:06.850Z,94638.78
2023-03-29T05:12:33.475Z,94655.81
2023-03-29T05:15:00.156Z,94661.28
2023-03-29T05:17:27.548Z,94652.59
2023-03-29T05:19:54.900Z,94650.97
2023-03-29T05:22:21.904Z,94646.44
2023-03-29T05:24:48.667Z,94652.03
2023-03-29T05:27:17.205Z,94652.84
2023-03-29T05:29:46.912Z,94648.28
2023-03-29T05:32:13.668Z,94645.88
2023-03-29T05:34:40.729Z,94639.84
2023-03-29T05:37:07.757Z,94638.09
2023-03-29T05:39:37.542Z,94645.63
2023-03-29T05:42:04.859Z,94638.78
2023-03-29T05:44:31.850Z,94637.97
2023-03-29T05:46:58.583Z,94641.06
2023-03-29T05:49:25.638Z,94623.63
2023-03-29T05:51:52.535Z,94617.19
2023-03-29T05:54:19.301Z,94615.84
2023-03-29T05:56:46.111Z,94628.06
2023-03-29T05:59:13.958Z,94620.81
2023-03-29T06:01:41.873Z,94624.41
2023-03-29T06:04:08.832Z,94615.53
2023-03-29T06:06:36.438Z,94606.56
2023-03-29T06:09:03.620Z,94598.91
2023-03-29T06:11:30.675Z,94604.94
2023-03-29T06:13:57.826Z,94600.78
2023-03-29T06:16:25.941Z,94597.03
2023-03-29T06:18:53.410Z,94601.59
2023-03-29T06:21:20.425Z,94589.75
2023-03-29T06:23:47.509Z,94590.53
2023-03-29T06:26:14.499Z,94594.78
2023-03-29T06:28:42.124Z,94585.13
2023-03-29T06:31:10.311Z,94580.88
2023-03-29T06:33:38.271Z,94575.19
2023-03-29T06:36:05.268Z,94569.06
2023-03-29T06:38:32.086Z,94579.66
2023-03-29T06:41:04.006Z,94574.00
2023-03-29T06:43:33.474Z,94585.66
2023-03-29T06:46:01.189Z,94589.31
2023-03-29T06:48:28.015Z,94585.44
2023-03-29T06:50:54.832Z,94593.25
2023-03-29T06:53:22.150Z,94586.84
2023-03-29T06:55:50.985Z,94592.63
2023-03-29T06:58:17.757Z,94595.88
2023-03-29T07:00:45.907Z,94609.09
2023-03-29T07:03:20.141Z,94605.81
2023-03-29T07:05:47.677Z,94613.31
2023-03-29T07:08:16.618Z,94614.91
2023-03-29T07:10:47.609Z,94617.75
2023-03-29T07:13:15.738Z,94609.41
2023-03-29T07:15:43.829Z,94616.72
2023-03-29T07:18:11.566Z,94617.34
2023-03-29T07:20:39.077Z,94619.16
2023-03-29T07:23:07.018Z,94619.34
2023-03-29T07:25:34.430Z,94627.94
2023-03-29T07:28:01.629Z,94617.41
2023-03-29T07:30:32.410Z,94618.25
2023-03-29T07:33:00.603Z,94614.75
2023-03-29T07:35:27.736Z,94625.63
2023-03-29T07:37:58.536Z,94626.22
2023-03-29T07:40:26.545Z,94619.50
2023-03-29T07:42:55.143Z,94622.72
2023-03-29T07:45:26.676Z,94630.38
2023-03-29T07:47:59.010Z,94622.69
2023-03-29T07:50:26.588Z,94626.69
2023-03-29T07:52:53.647Z,94611.91
2023-03-29T07:55:20.738Z,94616.94
2023-03-29T07:57:49.396Z,94612.06
2023-03-29T08:00:17.076Z,94627.47
2023-03-29T08:02:45.394Z,94621.41
2023-03-29T08:05:13.867Z,94616.78
2023-03-29T08:07:42.461Z,94616.31
2023-03-29T08:10:15.376Z,94610.16
2023-03-29T08:12:43.027Z,94610.44
2023-03-29T08:15:11.071Z,94623.44
2023-03-29T08:17:38.186Z,94617.75
2023-03-29T08:20:06.472Z,94617.47
2023-03-29T08:22:34.078Z,94618.63
2023-03-29T08:25:00.996Z,94617.97
2023-03-29T08:27:27.659Z,94624.16
2023-03-29T08:29:54.611Z,94618.25
2023-03-29T08:32:21.541Z,94611.91
2023-03-29T08:34:48.270Z,94616.06
2023-03-29T08:37:15.106Z,94628.84
2023-03-29T08:39:42.098Z,94632.63
2023-03-29T08:42:25.700Z,94629.09
2023-03-29T08:45:27.899Z,94635.00
2023-03-29T08:47:56.696Z,94633.53
2023-03-29T08:50:31.401Z,94622.47
2023-03-29T08:53:02.620Z,94631.31
2023-03-29T08:55:33.985Z,94634.09
2023-03-29T08:58:02.596Z,94634.81
2023-03-29T09:00:39.514Z,94641.63
2023-03-29T09:03:16.091Z,94631.13
2023-03-29T09:05:48.112Z,94636.66
2023-03-29T09:08:17.609Z,94635.91
2023-03-29T09:10:54.504Z,94638.06
2023-03-29T09:13:24.939Z,94640.94
2023-03-29T09:16:17.108Z,94628.19
2023-03-29T09:19:11.801Z,94627.59
2023-03-29T09:22:16.244Z,94621.38
2023-03-29T09:24:55.322Z,94616.25
2023-03-29T09:27:31.008Z,94623.88
2023-03-29T09:30:07.292Z,94621.06
2023-03-29T09:32:37.372Z,94613.09
2023-03-29T09:35:18.726Z,94614.91
2023-03-29T09:37:46.813Z,94613.47
2023-03-29T09:40:16.992Z,94620.44
2023-03-29T09:42:45.651Z,94621.72
2023-03-29T09:45:12.356Z,94607.06
2023-03-29T09:47:47.159Z,94603.84
2023-03-29T09:50:30.361Z,94603.91
2023-03-29T09:52:58.010Z,94598.78
2023-03-29T09:55:27.854Z,94590.75
2023-03-29T09:57:57.852Z,94589.97
2023-03-29T10:00:25.175Z,94596.19
2023-03-29T10:02:58.020Z,94595.88
2023-03-29T10:05:28.158Z,94598.09
2023-03-29T10:07:58.751Z,94602.09
2023-03-29T10:10:29.583Z,94592.91
2023-03-29T10:13:07.740Z,94589.41
2023-03-29T10:15:34.603Z,94596.63
2023-03-29T10:18:06.024Z,94598.28
2023-03-29T10:20:36.569Z,94586.03
2023-03-29T10:23:06.819Z,94583.50
2023-03-29T10:25:35.872Z,94594.84
2023-03-29T10:28:16.393Z,94581.50
2023-03-29T10:30:45.973Z,94590.84
2023-03-29T10:33:19.316Z,94579.38
2023-03-29T10:35:47.374Z,94576.50
2023-03-29T10:38:17.552Z,94574.53
2023-03-29T10:40:49.188Z,94586.38
2023-03-29T10:43:32.892Z,94576.59
2023-03-29T10:46:13.238Z,94574.78
2023-03-29T10:48:46.459Z,94555.44
2023-03-29T10:51:14.489Z,94562.34
2023-03-29T10:53:41.700Z,94566.09
2023-03-29T10:56:17.589Z,94569.44
2023-03-29T10:59:15.041Z,94550.69
2023-03-29T11:01:58.484Z,94565.91
2023-03-29T11:04:28.482Z,94566.22
2023-03-29T11:07:25.495Z,94560.78
2023-03-29T11:10:01.686Z,94562.88
2023-03-29T11:12:52.904Z,94545.69
2023-03-29T11:15:28.118Z,94546.66
2023-03-29T11:18:04.640Z,94549.88
2023-03-29T11:20:44.532Z,94551.16
2023-03-29T11:23:30.111Z,94545.38
2023-03-29T11:26:12.143Z,94534.66
2023-03-29T11:28:54.237Z,94524.56
2023-03-29T11:31:55.600Z,94527.31
2023-03-29T11:34:34.839Z,94533.13
2023-03-29T11:37:47.018Z,94535.56
2023-03-29T11:40:39.362Z,94539.34
2023-03-29T11:43:17.380Z,94536.63
2023-03-29T11:46:02.546Z,94533.84
2023-03-29T11:48:37.329Z,94528.38
2023-03-29T11:51:19.041Z,94534.78
2023-03-29T11:54:07.546Z,94519.91
2023-03-29T11:56:42.665Z,94525.03
2023-03-29T11:59:16.975Z,94524.38
2023-03-29T12:01:54.056Z,94519.28
2023-03-29T12:04:45.168Z,94519.22
2023-03-29T12:07:17.466Z,94507.22
2023-03-29T12:09:52.746Z,94517.66
2023-03-29T12:12:43.697Z,94517.41
2023-03-29T12:15:32.163Z,94509.88
2023-03-29T12:18:25.759Z,94512.59
2023-03-29T12:20:59.242Z,94520.19
2023-03-29T12:23:28.715Z,94505.94
2023-03-29T12:26:17.242Z,94489.22
2023-03-29T12:29:01.086Z,94499.22
2023-03-29T12:31:43.423Z,94492.81
2023-03-29T12:34:36.869Z,94487.28
2023-03-29T12:37:29.981Z,94497.47
2023-03-29T12:40:15.677Z,94487.75
2023-03-29T12:42:54.358Z,94462.13
2023-03-29T12:45:30.009Z,94470.50
2023-03-29T12:47:57.847Z,94486.88
2023-03-29T12:50:34.351Z,94481.47
2023-03-29T12:53:06.542Z,94477.22
2023-03-29T12:56:08.868Z,94468.03
2023-03-29T12:58:42.732Z,94466.06
2023-03-29T13:01:37.118Z,94465.13
2023-03-29T13:04:20.077Z,94464.69
2023-03-29T13:06:46.815Z,94446.16
2023-03-29T13:09:30.689Z,94453.56
2023-03-29T13:12:04.193Z,94442.91
2023-03-29T13:14:34.371Z,94456.28
2023-03-29T13:17:17.836Z,94451.72
2023-03-29T13:20:08.030Z,94449.66
2023-03-29T13:22:57.502Z,94452.09
2023-03-29T13:25:37.285Z,94449.94
2023-03-29T13:28:11.193Z,94451.97
2023-03-29T13:30:51.006Z,94447.94
2023-03-29T13:36:52.370Z,94447.28
2023-03-29T13:39:25.050Z,94437.66
2023-03-29T13:41:53.608Z,94445.84
2023-03-29T13:44:26.097Z,94443.25
2023-03-29T13:47:28.734Z,94435.38
2023-03-29T13:49:58.676Z,94436.19
2023-03-29T13:52:38.885Z,94433.38
2023-03-29T13:55:14.706Z,94429.34
2023-03-29T13:57:52.767Z,94424.03
2023-03-29T14:00:24.093Z,94423.97
2023-03-29T14:02:52.856Z,94422.19
2023-03-29T14:05:23.460Z,94425.09
2023-03-29T14:07:53.141Z,94424.84
2023-03-29T14:10:27.481Z,94411.13
2023-03-29T14:12:55.799Z,94420.94
2023-03-29T14:15:28.650Z,94419.97
2023-03-29T14:17:58.958Z,94414.22
2023-03-29T14:20:27.924Z,94403.97
2023-03-29T14:22:54.687Z,94406.38
2023-03-29T14:25:23.138Z,94405.13
2023-03-29T14:27:49.916Z,94405.56
2023-03-29T14:30:27.381Z,94403.19
2023-03-29T14:32:54.683Z,94400.84
2023-03-29T14:35:28.841Z,94400.47
2023-03-29T14:37:56.471Z,94384.69
2023-03-29T14:40:23.804Z,94385.75
2023-03-29T14:42:51.685Z,94386.47
2023-03-29T14:45:21.517Z,94389.59
2023-03-29T14:47:49.013Z,94387.88
2023-03-29T14:50:26.278Z,94390.50
2023-03-29T14:52:53.209Z,94384.63
2023-03-29T14:55:23.898Z,94378.06
2023-03-29T14:57:54.163Z,94385.09
2023-03-29T15:00:38.867Z,94380.03
2023-03-29T15:03:13.658Z,94376.47
2023-03-29T15:05:42.195Z,94365.22
2023-03-29T15:08:15.104Z,94367.00
2023-03-29T15:10:44.869Z,94364.34
2023-03-29T15:13:17.680Z,94370.88
2023-03-29T15:15:44.599Z,94370.81
2023-03-29T15:18:15.305Z,94373.00
2023-03-29T15:20:43.579Z,94356.91
2023-03-29T15:23:13.379Z,94354.00
2023-03-29T15:26:19.379Z,94350.63
2023-03-29T15:28:49.010Z,94355.16
2023-03-29T15:31:19.187Z,94344.69
2023-03-29T15:33:46.645Z,94340.84
2023-03-29T15:36:14.553Z,94343.59
2023-03-29T15:38:44.461Z,94342.44
2023-03-29T15:41:13.742Z,94347.31
2023-03-29T15:43:41.527Z,94344.72
2023-03-29T15:46:08.917Z,94339.59
2023-03-29T15:48:35.787Z,94336.75
2023-03-29T15:51:05.719Z,94342.16
2023-03-29T15:53:33.475Z,94344.72
2023-03-29T15:56:02.117Z,94339.88
2023-03-29T15:58:34.002Z,94342.50
2023-03-29T16:01:33.900Z,94329.38
2023-03-29T16:04:02.185Z,94343.38
2023-03-29T16:06:28.989Z,94340.72
2023-03-29T16:08:57.334Z,94334.94
2023-03-29T16:11:24.308Z,94337.06
2023-03-29T16:13:51.687Z,94341.41
2023-03-29T16:16:18.600Z,94326.66
2023-03-29T16:18:45.821Z,94325.34
2023-03-29T16:21:18.305Z,94323.56
2023-03-29T16:23:46.571Z,94313.47
2023-03-29T16:26:14.790Z,94313.91
2023-03-29T16:28:41.632Z,94312.28
2023-03-29T16:31:14.980Z,94316.25
2023-03-29T16:33:41.844Z,94316.31
2023-03-29T16:36:09.093Z,94311.50
2023-03-29T16:38:35.895Z,94307.63
2023-03-29T16:41:02.813Z,94302.66
2023-03-29T16:43:29.599Z,94308.88
2023-03-29T16:45:57.098Z,94302.84
2023-03-29T16:48:24.146Z,94314.16
2023-03-29T16:50:51.084Z,94310.94
2023-03-29T16:53:18.878Z,94315.28
2023-03-29T16:55:49.244Z,94313.47
2023-03-29T16:58:16.294Z,94314.94
2023-03-29T17:00:45.028Z,94311.97
2023-03-29T17:03:13.395Z,94312.63
2023-03-29T17:05:41.804Z,94309.19
2023-03-29T17:08:10.346Z,94312.13
2023-03-29T17:10:40.685Z,94314.22
2023-03-29T17:13:08.251Z,94311.50
2023-03-29T17:15:38.101Z,94301.94
2023-03-29T17:18:06.531Z,94311.91
2023-03-29T17:20:33.265Z,94317.06
2023-03-29T17:23:00.158Z,94313.69
2023-03-29T17:25:26.897Z,94316.09
2023-03-29T17:27:54.230Z,94320.78
2023-03-29T17:30:21.310Z,94316.44
2023-03-29T17:32:48.139Z,94320.66
2023-03-29T17:35:14.916Z,94323.88
2023-03-29T17:37:42.719Z,94318.25
2023-03-29T17:40:15.568Z,94318.25
2023-03-29T17:42:43.117Z,94317.44
2023-03-29T17:45:11.317Z,94326.44
2023-03-29T17:47:38.752Z,94330.59
2023-03-29T17:50:07.130Z,94334.13
2023-03-29T17:52:33.954Z,94322.44
2023-03-29T17:55:00.694Z,94340.44
2023-03-29T17:57:27.950Z,94331.78
2023-03-29T17:59:54.748Z,94340.59
2023-03-29T18:02:23.383Z,94344.13
2023-03-29T18:04:50.892Z,94348.59
2023-03-29T18:07:18.791Z,94360.16
2023-03-29T18:09:45.657Z,94358.03
2023-03-29T18:12:12.562Z,94355.31
2023-03-29T18:14:39.457Z,94354.66
2023-03-29T18:17:06.519Z,94352.28
2023-03-29T18:19:33.312Z,94354.34
2023-03-29T18:22:00.907Z,94366.84
2023-03-29T18:24:27.827Z,94352.56
2023-03-29T18:26:54.618Z,94357.41
2023-03-29T18:29:21.443Z,94369.78
2023-03-29T18:31:48.233Z,94364.69
2023-03-29T18:34:15.159Z,94374.56
2023-03-29T18:36:42.015Z,94375.72
2023-03-29T18:39:09.231Z,94386.94
2023-03-29T18:41:37.456Z,94393.50
2023-03-29T18:44:04.947Z,94389.03
2023-03-29T18:46:31.985Z,94386.31
2023-03-29T18:48:59.592Z,94378.91
2023-03-29T18:51:28.248Z,94391.13
2023-03-29T18:53:56.101Z,94391.72
2023-03-29T18:56:22.891Z,94400.22
2023-03-29T18:58:49.739Z,94411.44
2023-03-29T19:01:16.773Z,94418.34
2023-03-29T19:03:43.670Z,94413.03
2023-03-29T19:06:11.899Z,94411.09
2023-03-29T19:08:41.405Z,94418.47
2023-03-29T19:11:10.508Z,94411.59
2023-03-29T19:13:37.278Z,94415.28
2023-03-29T19:16:04.468Z,94407.22
2023-03-29T19:18:31.781Z,94416.19
2023-03-29T19:20:58.522Z,94402.56
2023-03-29T19:23:27.281Z,94410.91
2023-03-29T19:26:00.075Z,94409.47
2023-03-29T19:28:27.721Z,94395.88
2023-03-29T19:30:55.472Z,94395.03
2023-03-29T19:33:22.251Z,94393.75
2023-03-29T19:35:52.229Z,94400.69
2023-03-29T19:38:19.776Z,94398.59
2023-03-29T19:40:47.660Z,94402.78
2023-03-29T19:43:16.652Z,94390.56
2023-03-29T19:45:47.631Z,94406.94
2023-03-29T19:48:21.827Z,94398.00
2023-03-29T19:50:50.414Z,94407.25
2023-03-29T19:53:17.072Z,94405.66
2023-03-29T19:55:45.508Z,94393.81
2023-03-29T19:58:13.157Z,94403.75
2023-03-29T20:00:41.971Z,94399.72
2023-03-29T20:03:14.068Z,94395.72
2023-03-29T20:05:41.210Z,94379.53
2023-03-29T20:08:08.151Z,94382.91
2023-03-29T20:10:35.733Z,94383.06
2023-03-29T20:13:03.208Z,94390.13
2023-03-29T20:15:29.836Z,94378.41
2023-03-29T20:18:00.446Z,94364.97
2023-03-29T20:20:27.623Z,94360.31
2023-03-29T20:23:04.681Z,94362.56
2023-03-29T20:25:31.944Z,94355.03
2023-03-29T20:27:59.673Z,94362.06
2023-03-29T20:30:26.449Z,94351.66
2023-03-29T20:32:53.203Z,94357.06
2023-03-29T20:35:20.054Z,94350.81
2023-03-29T20:37:46.692Z,94349.88
2023-03-29T20:40:15.609Z,94353.91
2023-03-29T20:42:42.566Z,94351.50
2023-03-29T20:45:18.293Z,94352.31
2023-03-29T20:47:56.277Z,94351.94
2023-03-29T20:50:26.353Z,94354.34
2023-03-29T20:52:56.775Z,94355.94
2023-03-29T20:55:23.984Z,94361.88
2023-03-29T20:57:59.799Z,94344.59
2023-03-29T21:00:27.691Z,94346.69
2023-03-29T21:03:00.867Z,94341.34
2023-03-29T21:05:28.853Z,94344.06
2023-03-29T21:07:55.564Z,94351.28
2023-03-29T21:10:23.572Z,94341.19
2023-03-29T21:12:51.353Z,94343.44
2023-03-29T21:15:18.134Z,94340.25
2023-03-29T21:17:44.942Z,94337.03
2023-03-29T21:20:12.185Z,94347.59
2023-03-29T21:22:39.431Z,94332.91
2023-03-29T21:25:11.617Z,94334.50
2023-03-29T21:27:38.389Z,94337.06
2023-03-29T21:30:07.118Z,94339.16
2023-03-29T21:32:34.139Z,94335.47
2023-03-29T21:35:00.863Z,94327.94
2023-03-29T21:37:27.452Z,94339.28
2023-03-29T21:39:54.061Z,94335.41
2023-03-29T21:42:20.792Z,94338.94
2023-03-29T21:44:47.481Z,94338.16
2023-03-29T21:47:14.102Z,94337.34
2023-03-29T21:49:40.896Z,94332.53
2023-03-29T21:52:07.504Z,94330.63
2023-03-29T21:54:34.299Z,94329.22
2023-03-29T21:57:01.364Z,94327.09
2023-03-29T21:59:28.081Z,94340.56
2023-03-29T22:01:54.829Z,94334.78
2023-03-29T22:04:35.195Z,94332.22
2023-03-29T22:07:03.198Z,94322.69
2023-03-29T22:09:29.858Z,94318.53
2023-03-29T22:11:56.982Z,94313.25
2023-03-29T22:14:23.930Z,94305.91
2023-03-29T22:16:50.563Z,94305.91
2023-03-29T22:19:17.211Z,94292.72
2023-03-29T22:21:44.187Z,94293.19
2023-03-29T22:24:11.027Z,94283.69
2023-03-29T22:26:37.705Z,94277.28
2023-03-29T22:29:04.333Z,94274.41
2023-03-29T22:31:32.339Z,94284.78
2023-03-29T22:33:59.856Z,94283.53
2023-03-29T22:36:28.823Z,94276.41
2023-03-29T22:38:56.071Z,94283.16
2023-03-29T22:41:24.683Z,94282.03
2023-03-29T22:43:54.751Z,94273.13
2023-03-29T22:46:22.261Z,94289.09
2023-03-29T22:48:49.163Z,94285.78
2023-03-29T22:51:16.760Z,94283.91
2023-03-29T22:53:43.477Z,94278.50
2023-03-29T22:56:10.472Z,94285.66
2023-03-29T22:58:37.725Z,94269.94
2023-03-29T23:01:05.389Z,94282.09
2023-03-29T23:03:32.436Z,94274.72
2023-03-29T23:06:02.431Z,94272.34
2023-03-29T23:08:30.966Z,94269.78
2023-03-29T23:10:58.041Z,94269.28
2023-03-29T23:13:28.987Z,94274.41
2023-03-29T23:15:58.953Z,94270.81
2023-03-29T23:18:28.595Z,94272.66
2023-03-29T23:20:56.915Z,94277.47
2023-03-29T23:23:25.098Z,94282.25
2023-03-29T23:25:52.970Z,94286.59
2023-03-29T23:28:23.721Z,94283.38
2023-03-29T23:31:02.896Z,94280.81
2023-03-29T23:33:33.645Z,94296.19
2023-03-29T23:36:03.458Z,94297.78
2023-03-29T23:38:31.045Z,94290.25
2023-03-29T23:41:01.113Z,94291.97
2023-03-29T23:43:32.991Z,94287.53
2023-03-29T23:46:01.249Z,94284.16
2023-03-29T23:48:28.527Z,94285.28
2023-03-29T23:50:57.371Z,94276.81
2023-03-29T23:53:25.515Z,94280.34
2023-03-29T23:55:52.436Z,94275.06
2023-03-29T23:58:19.184Z,94279.22
